East White Plains, New York
Current Conditions -  °F | °C
As of 8:18 AM on Thursday 23 Oct 2014 (Local Time) from KHPN Reporting Station
Haze Haze  
Wind Chill: 41°   Ceiling: 1300
Heat Index: 48°   Visibility: 4mi
Dew Point: 45°   Wind: 20mph
Humidity: 87%   Direction: 340°NNW
Pressure: 29.68"   Gusts: 26mph
Location:  41.0555°N, 73.7433°W
Report Text: KHPN 231218Z 34017G23KT 4SM BR BKN013 OVC034 09/07 A2968 RMK AO2 RAE15 P0002
Loading
Personal Weather Stations






























Interactive Weather Map
Tropical Storm Tracking
New forecast layout! Learn more

10-Day Weather Forecast

Advertisements
Track Severe Weather on mobile